sensor_id;sensor_type;location;lat;lon;timestamp;P1;durP1;ratioP1;P2;durP2;ratioP2
67352;SDS011;54238;52.278;21.056;2022-09-27T00:00:09;20.70;;;15.70;;
67352;SDS011;54238;52.278;21.056;2022-09-27T00:03:02;20.10;;;17.30;;
67352;SDS011;54238;52.278;21.056;2022-09-27T00:05:31;22.50;;;17.90;;
67352;SDS011;54238;52.278;21.056;2022-09-27T00:08:00;20.20;;;17.10;;
67352;SDS011;54238;52.278;21.056;2022-09-27T00:10:30;26.00;;;18.90;;
67352;SDS011;54238;52.278;21.056;2022-09-27T00:13:25;22.80;;;17.50;;
67352;SDS011;54238;52.278;21.056;2022-09-27T00:16:00;24.60;;;20.00;;
67352;SDS011;54238;52.278;21.056;2022-09-27T00:18:33;26.70;;;19.20;;
67352;SDS011;54238;52.278;21.056;2022-09-27T00:21:10;24.70;;;20.20;;
67352;SDS011;54238;52.278;21.056;2022-09-27T00:23:38;21.00;;;17.70;;
67352;SDS011;54238;52.278;21.056;2022-09-27T00:26:07;24.00;;;19.20;;
67352;SDS011;54238;52.278;21.056;2022-09-27T00:28:36;25.90;;;19.70;;
67352;SDS011;54238;52.278;21.056;2022-09-27T00:31:08;27.40;;;21.50;;
67352;SDS011;54238;52.278;21.056;2022-09-27T00:33:40;24.40;;;19.60;;
67352;SDS011;54238;52.278;21.056;2022-09-27T00:36:09;23.90;;;20.00;;
67352;SDS011;54238;52.278;21.056;2022-09-27T00:38:42;25.70;;;19.90;;
67352;SDS011;54238;52.278;21.056;2022-09-27T00:41:16;24.90;;;19.20;;
67352;SDS011;54238;52.278;21.056;2022-09-27T00:46:44;22.50;;;18.80;;
67352;SDS011;54238;52.278;21.056;2022-09-27T00:49:19;26.30;;;18.70;;
67352;SDS011;54238;52.278;21.056;2022-09-27T00:51:59;26.60;;;21.40;;
67352;SDS011;54238;52.278;21.056;2022-09-27T00:54:40;22.10;;;19.70;;
67352;SDS011;54238;52.278;21.056;2022-09-27T00:57:10;34.00;;;22.10;;
67352;SDS011;54238;52.278;21.056;2022-09-27T00:59:46;26.90;;;21.60;;
67352;SDS011;54238;52.278;21.056;2022-09-27T01:02:24;26.80;;;21.70;;
67352;SDS011;54238;52.278;21.056;2022-09-27T01:04:54;24.70;;;20.40;;
67352;SDS011;54238;52.278;21.056;2022-09-27T01:07:22;26.70;;;22.70;;
67352;SDS011;54238;52.278;21.056;2022-09-27T01:09:54;26.40;;;22.70;;
67352;SDS011;54238;52.278;21.056;2022-09-27T01:21:28;24.30;;;19.30;;
67352;SDS011;54238;52.278;21.056;2022-09-27T01:45:02;34.40;;;24.50;;
67352;SDS011;54238;52.278;21.056;2022-09-27T01:47:50;33.30;;;24.40;;
67352;SDS011;54238;52.278;21.056;2022-09-27T01:50:31;31.80;;;25.60;;
67352;SDS011;54238;52.278;21.056;2022-09-27T01:53:09;36.80;;;24.90;;
67352;SDS011;54238;52.278;21.056;2022-09-27T01:55:44;32.50;;;22.90;;
67352;SDS011;54238;52.278;21.056;2022-09-27T01:58:25;30.20;;;22.80;;
67352;SDS011;54238;52.278;21.056;2022-09-27T02:00:59;30.70;;;22.60;;
67352;SDS011;54238;52.278;21.056;2022-09-27T02:04:12;32.20;;;24.20;;
67352;SDS011;54238;52.278;21.056;2022-09-27T02:06:47;30.70;;;24.20;;
67352;SDS011;54238;52.278;21.056;2022-09-27T02:09:35;30.00;;;23.40;;
67352;SDS011;54238;52.278;21.056;2022-09-27T02:12:09;36.10;;;25.00;;
67352;SDS011;54238;52.278;21.056;2022-09-27T02:14:44;35.60;;;23.60;;
67352;SDS011;54238;52.278;21.056;2022-09-27T02:23:32;34.00;;;25.10;;
67352;SDS011;54238;52.278;21.056;2022-09-27T02:26:17;33.00;;;25.50;;
67352;SDS011;54238;52.278;21.056;2022-09-27T02:29:00;31.40;;;22.10;;
67352;SDS011;54238;52.278;21.056;2022-09-27T02:31:36;29.80;;;24.00;;
67352;SDS011;54238;52.278;21.056;2022-09-27T02:36:46;36.80;;;26.30;;
67352;SDS011;54238;52.278;21.056;2022-09-27T02:39:15;34.00;;;25.10;;
67352;SDS011;54238;52.278;21.056;2022-09-27T02:41:43;36.00;;;24.70;;
67352;SDS011;54238;52.278;21.056;2022-09-27T02:44:16;33.10;;;25.00;;
67352;SDS011;54238;52.278;21.056;2022-09-27T02:55:52;34.50;;;25.20;;
67352;SDS011;54238;52.278;21.056;2022-09-27T02:58:46;35.00;;;27.00;;
67352;SDS011;54238;52.278;21.056;2022-09-27T03:01:37;33.70;;;26.10;;
67352;SDS011;54238;52.278;21.056;2022-09-27T03:04:38;35.30;;;25.10;;
67352;SDS011;54238;52.278;21.056;2022-09-27T03:07:09;34.20;;;24.50;;
67352;SDS011;54238;52.278;21.056;2022-09-27T03:09:47;37.70;;;26.70;;
67352;SDS011;54238;52.278;21.056;2022-09-27T03:12:20;38.30;;;25.30;;
67352;SDS011;54238;52.278;21.056;2022-09-27T03:14:59;34.90;;;27.20;;
67352;SDS011;54238;52.278;21.056;2022-09-27T03:17:29;36.10;;;26.40;;
67352;SDS011;54238;52.278;21.056;2022-09-27T03:20:00;37.90;;;27.30;;
67352;SDS011;54238;52.278;21.056;2022-09-27T03:22:29;38.30;;;26.50;;
67352;SDS011;54238;52.278;21.056;2022-09-27T03:24:58;38.50;;;27.50;;
67352;SDS011;54238;52.278;21.056;2022-09-27T03:27:26;37.70;;;25.90;;
67352;SDS011;54238;52.278;21.056;2022-09-27T03:29:53;40.30;;;26.90;;
67352;SDS011;54238;52.278;21.056;2022-09-27T03:32:22;38.60;;;27.00;;
67352;SDS011;54238;52.278;21.056;2022-09-27T03:34:51;40.00;;;24.50;;
67352;SDS011;54238;52.278;21.056;2022-09-27T03:37:21;39.80;;;28.00;;
67352;SDS011;54238;52.278;21.056;2022-09-27T03:39:50;46.00;;;30.50;;
67352;SDS011;54238;52.278;21.056;2022-09-27T03:42:20;44.20;;;30.30;;
67352;SDS011;54238;52.278;21.056;2022-09-27T03:44:48;44.40;;;30.30;;
67352;SDS011;54238;52.278;21.056;2022-09-27T03:47:17;42.20;;;28.10;;
67352;SDS011;54238;52.278;21.056;2022-09-27T03:49:44;45.90;;;29.00;;
67352;SDS011;54238;52.278;21.056;2022-09-27T03:52:14;40.30;;;27.20;;
67352;SDS011;54238;52.278;21.056;2022-09-27T03:54:48;46.00;;;30.30;;
67352;SDS011;54238;52.278;21.056;2022-09-27T03:57:20;41.10;;;28.60;;
67352;SDS011;54238;52.278;21.056;2022-09-27T03:59:52;42.90;;;28.00;;
67352;SDS011;54238;52.278;21.056;2022-09-27T04:02:19;42.70;;;28.40;;
67352;SDS011;54238;52.278;21.056;2022-09-27T04:05:02;43.40;;;29.90;;
67352;SDS011;54238;52.278;21.056;2022-09-27T04:07:31;43.00;;;29.00;;
67352;SDS011;54238;52.278;21.056;2022-09-27T04:10:07;42.80;;;27.80;;
67352;SDS011;54238;52.278;21.056;2022-09-27T04:12:39;48.30;;;31.20;;
67352;SDS011;54238;52.278;21.056;2022-09-27T04:18:01;50.10;;;32.20;;
67352;SDS011;54238;52.278;21.056;2022-09-27T04:20:28;48.60;;;31.50;;
67352;SDS011;54238;52.278;21.056;2022-09-27T04:22:59;44.70;;;31.00;;
67352;SDS011;54238;52.278;21.056;2022-09-27T04:25:52;48.30;;;32.20;;
67352;SDS011;54238;52.278;21.056;2022-09-27T04:28:21;47.10;;;31.70;;
67352;SDS011;54238;52.278;21.056;2022-09-27T04:30:51;50.60;;;34.70;;
67352;SDS011;54238;52.278;21.056;2022-09-27T04:33:23;52.30;;;34.60;;
67352;SDS011;54238;52.278;21.056;2022-09-27T04:35:57;42.10;;;27.50;;
67352;SDS011;54238;52.278;21.056;2022-09-27T04:38:43;51.60;;;32.70;;
67352;SDS011;54238;52.278;21.056;2022-09-27T04:41:09;55.50;;;34.70;;
67352;SDS011;54238;52.278;21.056;2022-09-27T04:43:36;50.20;;;31.80;;
67352;SDS011;54238;52.278;21.056;2022-09-27T04:46:04;53.80;;;34.10;;
67352;SDS011;54238;52.278;21.056;2022-09-27T04:48:31;49.30;;;30.30;;
67352;SDS011;54238;52.278;21.056;2022-09-27T04:51:01;48.30;;;29.90;;
67352;SDS011;54238;52.278;21.056;2022-09-27T04:53:30;52.50;;;32.40;;
67352;SDS011;54238;52.278;21.056;2022-09-27T04:56:02;50.60;;;31.40;;
67352;SDS011;54238;52.278;21.056;2022-09-27T04:58:33;61.40;;;35.90;;
67352;SDS011;54238;52.278;21.056;2022-09-27T05:01:01;46.60;;;29.00;;
67352;SDS011;54238;52.278;21.056;2022-09-27T05:03:32;54.40;;;32.40;;
67352;SDS011;54238;52.278;21.056;2022-09-27T05:05:59;63.80;;;35.20;;
67352;SDS011;54238;52.278;21.056;2022-09-27T05:08:27;59.00;;;36.60;;
67352;SDS011;54238;52.278;21.056;2022-09-27T05:10:56;57.90;;;35.90;;
67352;SDS011;54238;52.278;21.056;2022-09-27T05:13:29;58.00;;;36.60;;
67352;SDS011;54238;52.278;21.056;2022-09-27T05:16:09;61.70;;;36.40;;
67352;SDS011;54238;52.278;21.056;2022-09-27T05:18:35;63.50;;;37.60;;
67352;SDS011;54238;52.278;21.056;2022-09-27T05:21:05;55.20;;;34.20;;
67352;SDS011;54238;52.278;21.056;2022-09-27T05:23:32;56.80;;;34.40;;
67352;SDS011;54238;52.278;21.056;2022-09-27T05:26:04;57.00;;;36.30;;
67352;SDS011;54238;52.278;21.056;2022-09-27T05:28:34;51.80;;;33.50;;
67352;SDS011;54238;52.278;21.056;2022-09-27T05:31:08;64.90;;;37.40;;
67352;SDS011;54238;52.278;21.056;2022-09-27T05:33:39;64.10;;;37.80;;
67352;SDS011;54238;52.278;21.056;2022-09-27T05:36:07;66.40;;;38.40;;
67352;SDS011;54238;52.278;21.056;2022-09-27T05:38:37;71.80;;;40.80;;
67352;SDS011;54238;52.278;21.056;2022-09-27T05:41:06;60.60;;;35.50;;
67352;SDS011;54238;52.278;21.056;2022-09-27T05:43:37;68.80;;;40.80;;
67352;SDS011;54238;52.278;21.056;2022-09-27T05:46:13;61.30;;;34.40;;
67352;SDS011;54238;52.278;21.056;2022-09-27T05:48:40;65.20;;;35.80;;
67352;SDS011;54238;52.278;21.056;2022-09-27T05:51:14;70.30;;;39.70;;
67352;SDS011;54238;52.278;21.056;2022-09-27T05:53:41;68.40;;;36.50;;
67352;SDS011;54238;52.278;21.056;2022-09-27T05:56:13;71.70;;;34.50;;
67352;SDS011;54238;52.278;21.056;2022-09-27T05:58:44;64.20;;;35.10;;
67352;SDS011;54238;52.278;21.056;2022-09-27T06:01:13;60.80;;;33.10;;
67352;SDS011;54238;52.278;21.056;2022-09-27T06:03:40;46.40;;;26.80;;
67352;SDS011;54238;52.278;21.056;2022-09-27T06:06:12;44.10;;;27.10;;
67352;SDS011;54238;52.278;21.056;2022-09-27T06:08:41;42.70;;;23.40;;
67352;SDS011;54238;52.278;21.056;2022-09-27T06:11:11;41.90;;;22.70;;
67352;SDS011;54238;52.278;21.056;2022-09-27T06:13:45;55.10;;;27.40;;
67352;SDS011;54238;52.278;21.056;2022-09-27T06:16:15;47.60;;;25.80;;
67352;SDS011;54238;52.278;21.056;2022-09-27T06:18:44;37.70;;;20.70;;
67352;SDS011;54238;52.278;21.056;2022-09-27T06:21:15;38.00;;;23.30;;
67352;SDS011;54238;52.278;21.056;2022-09-27T06:26:50;33.00;;;19.90;;
67352;SDS011;54238;52.278;21.056;2022-09-27T06:29:22;30.60;;;20.20;;
67352;SDS011;54238;52.278;21.056;2022-09-27T06:31:57;42.00;;;20.10;;
67352;SDS011;54238;52.278;21.056;2022-09-27T06:34:26;39.80;;;21.60;;
67352;SDS011;54238;52.278;21.056;2022-09-27T06:36:58;37.00;;;20.40;;
67352;SDS011;54238;52.278;21.056;2022-09-27T06:39:32;37.20;;;22.20;;
67352;SDS011;54238;52.278;21.056;2022-09-27T06:42:03;40.10;;;22.80;;
67352;SDS011;54238;52.278;21.056;2022-09-27T06:47:12;31.70;;;19.10;;
67352;SDS011;54238;52.278;21.056;2022-09-27T06:52:35;34.60;;;21.00;;
67352;SDS011;54238;52.278;21.056;2022-09-27T06:55:03;34.90;;;21.70;;
67352;SDS011;54238;52.278;21.056;2022-09-27T06:57:31;41.20;;;22.10;;
67352;SDS011;54238;52.278;21.056;2022-09-27T07:00:16;37.50;;;20.40;;
67352;SDS011;54238;52.278;21.056;2022-09-27T07:02:56;38.50;;;19.90;;
67352;SDS011;54238;52.278;21.056;2022-09-27T07:05:27;32.60;;;20.10;;
67352;SDS011;54238;52.278;21.056;2022-09-27T07:07:58;33.60;;;19.30;;
67352;SDS011;54238;52.278;21.056;2022-09-27T07:10:30;39.00;;;21.10;;
67352;SDS011;54238;52.278;21.056;2022-09-27T07:13:09;39.80;;;22.60;;
67352;SDS011;54238;52.278;21.056;2022-09-27T07:15:40;41.30;;;21.20;;
67352;SDS011;54238;52.278;21.056;2022-09-27T07:18:10;43.90;;;25.20;;
67352;SDS011;54238;52.278;21.056;2022-09-27T07:20:39;42.10;;;24.70;;
67352;SDS011;54238;52.278;21.056;2022-09-27T07:23:13;39.30;;;22.90;;
67352;SDS011;54238;52.278;21.056;2022-09-27T07:25:48;44.50;;;25.50;;
67352;SDS011;54238;52.278;21.056;2022-09-27T07:28:18;44.40;;;23.80;;
67352;SDS011;54238;52.278;21.056;2022-09-27T07:30:57;46.90;;;23.60;;
67352;SDS011;54238;52.278;21.056;2022-09-27T07:33:27;49.30;;;26.80;;
67352;SDS011;54238;52.278;21.056;2022-09-27T07:35:57;49.70;;;26.10;;
67352;SDS011;54238;52.278;21.056;2022-09-27T07:38:26;41.80;;;24.20;;
67352;SDS011;54238;52.278;21.056;2022-09-27T07:40:55;49.90;;;26.40;;
67352;SDS011;54238;52.278;21.056;2022-09-27T07:43:22;42.00;;;23.90;;
67352;SDS011;54238;52.278;21.056;2022-09-27T07:45:57;40.70;;;24.10;;
67352;SDS011;54238;52.278;21.056;2022-09-27T07:48:27;42.90;;;23.60;;
67352;SDS011;54238;52.278;21.056;2022-09-27T07:50:54;46.30;;;25.50;;
67352;SDS011;54238;52.278;21.056;2022-09-27T07:53:21;42.90;;;22.90;;
67352;SDS011;54238;52.278;21.056;2022-09-27T07:55:51;41.80;;;23.80;;
67352;SDS011;54238;52.278;21.056;2022-09-27T07:58:21;39.20;;;22.00;;
67352;SDS011;54238;52.278;21.056;2022-09-27T08:00:50;43.90;;;22.80;;
67352;SDS011;54238;52.278;21.056;2022-09-27T08:03:22;47.30;;;22.80;;
67352;SDS011;54238;52.278;21.056;2022-09-27T08:05:54;39.30;;;23.60;;
67352;SDS011;54238;52.278;21.056;2022-09-27T08:08:21;39.50;;;24.60;;
67352;SDS011;54238;52.278;21.056;2022-09-27T08:10:47;40.40;;;24.00;;
67352;SDS011;54238;52.278;21.056;2022-09-27T08:13:16;42.00;;;25.90;;
67352;SDS011;54238;52.278;21.056;2022-09-27T08:15:48;38.90;;;25.40;;
67352;SDS011;54238;52.278;21.056;2022-09-27T08:18:20;34.20;;;23.40;;
67352;SDS011;54238;52.278;21.056;2022-09-27T08:20:55;35.70;;;23.20;;
67352;SDS011;54238;52.278;21.056;2022-09-27T08:23:23;37.40;;;23.10;;
67352;SDS011;54238;52.278;21.056;2022-09-27T08:25:53;36.40;;;22.80;;
67352;SDS011;54238;52.278;21.056;2022-09-27T08:28:21;36.50;;;21.70;;
67352;SDS011;54238;52.278;21.056;2022-09-27T08:30:50;32.50;;;20.80;;
67352;SDS011;54238;52.278;21.056;2022-09-27T08:33:23;31.40;;;21.10;;
67352;SDS011;54238;52.278;21.056;2022-09-27T08:35:55;29.60;;;21.50;;
67352;SDS011;54238;52.278;21.056;2022-09-27T08:38:26;31.10;;;21.30;;
67352;SDS011;54238;52.278;21.056;2022-09-27T08:41:25;31.10;;;21.90;;
67352;SDS011;54238;52.278;21.056;2022-09-27T08:47:39;31.70;;;20.40;;
67352;SDS011;54238;52.278;21.056;2022-09-27T08:55:45;28.40;;;18.80;;
67352;SDS011;54238;52.278;21.056;2022-09-27T08:58:29;29.30;;;22.70;;
67352;SDS011;54238;52.278;21.056;2022-09-27T09:01:09;33.20;;;24.00;;
67352;SDS011;54238;52.278;21.056;2022-09-27T09:03:47;33.30;;;21.30;;
67352;SDS011;54238;52.278;21.056;2022-09-27T09:06:38;28.80;;;21.10;;
67352;SDS011;54238;52.278;21.056;2022-09-27T09:09:47;33.30;;;22.40;;
67352;SDS011;54238;52.278;21.056;2022-09-27T09:19:06;33.40;;;23.30;;
67352;SDS011;54238;52.278;21.056;2022-09-27T09:21:51;30.30;;;22.30;;
67352;SDS011;54238;52.278;21.056;2022-09-27T09:27:16;37.40;;;25.10;;
67352;SDS011;54238;52.278;21.056;2022-09-27T09:35:57;37.00;;;25.60;;
67352;SDS011;54238;52.278;21.056;2022-09-27T09:38:36;31.80;;;22.40;;
67352;SDS011;54238;52.278;21.056;2022-09-27T09:44:13;36.50;;;24.40;;
67352;SDS011;54238;52.278;21.056;2022-09-27T09:46:48;29.60;;;23.50;;
67352;SDS011;54238;52.278;21.056;2022-09-27T09:49:21;28.00;;;21.60;;
67352;SDS011;54238;52.278;21.056;2022-09-27T09:52:09;31.80;;;20.30;;
67352;SDS011;54238;52.278;21.056;2022-09-27T09:57:46;19.70;;;17.10;;
67352;SDS011;54238;52.278;21.056;2022-09-27T10:00:39;22.00;;;17.80;;
67352;SDS011;54238;52.278;21.056;2022-09-27T10:03:09;24.80;;;18.40;;
67352;SDS011;54238;52.278;21.056;2022-09-27T10:05:42;22.60;;;18.00;;
67352;SDS011;54238;52.278;21.056;2022-09-27T10:08:20;21.20;;;18.00;;
67352;SDS011;54238;52.278;21.056;2022-09-27T10:10:50;18.80;;;15.30;;
67352;SDS011;54238;52.278;21.056;2022-09-27T10:13:19;21.00;;;17.20;;
67352;SDS011;54238;52.278;21.056;2022-09-27T10:16:07;20.60;;;15.50;;
67352;SDS011;54238;52.278;21.056;2022-09-27T10:18:41;17.70;;;15.70;;
67352;SDS011;54238;52.278;21.056;2022-09-27T10:21:18;19.90;;;16.30;;
67352;SDS011;54238;52.278;21.056;2022-09-27T10:24:06;16.20;;;13.90;;
67352;SDS011;54238;52.278;21.056;2022-09-27T10:26:45;15.90;;;13.30;;
67352;SDS011;54238;52.278;21.056;2022-09-27T10:29:24;15.90;;;13.90;;
67352;SDS011;54238;52.278;21.056;2022-09-27T10:31:58;16.80;;;14.30;;
67352;SDS011;54238;52.278;21.056;2022-09-27T10:34:32;19.20;;;12.60;;
67352;SDS011;54238;52.278;21.056;2022-09-27T10:39:45;12.20;;;10.80;;
67352;SDS011;54238;52.278;21.056;2022-09-27T10:42:42;14.60;;;12.30;;
67352;SDS011;54238;52.278;21.056;2022-09-27T10:45:32;16.40;;;13.50;;
67352;SDS011;54238;52.278;21.056;2022-09-27T10:48:05;16.00;;;12.20;;
67352;SDS011;54238;52.278;21.056;2022-09-27T10:50:37;16.90;;;13.80;;
67352;SDS011;54238;52.278;21.056;2022-09-27T10:53:14;15.70;;;12.90;;
67352;SDS011;54238;52.278;21.056;2022-09-27T10:55:49;19.10;;;14.10;;
67352;SDS011;54238;52.278;21.056;2022-09-27T10:58:40;17.60;;;15.20;;
67352;SDS011;54238;52.278;21.056;2022-09-27T11:01:09;17.70;;;14.80;;
67352;SDS011;54238;52.278;21.056;2022-09-27T11:03:50;18.50;;;14.30;;
67352;SDS011;54238;52.278;21.056;2022-09-27T11:08:51;22.10;;;15.80;;
67352;SDS011;54238;52.278;21.056;2022-09-27T11:11:23;18.80;;;16.10;;
67352;SDS011;54238;52.278;21.056;2022-09-27T11:14:02;14.30;;;12.40;;
67352;SDS011;54238;52.278;21.056;2022-09-27T11:31:24;22.90;;;17.60;;
67352;SDS011;54238;52.278;21.056;2022-09-27T11:34:19;18.90;;;15.50;;
67352;SDS011;54238;52.278;21.056;2022-09-27T11:43:11;15.10;;;13.20;;
67352;SDS011;54238;52.278;21.056;2022-09-27T11:49:05;15.90;;;14.10;;
67352;SDS011;54238;52.278;21.056;2022-09-27T12:07:11;16.50;;;14.50;;
67352;SDS011;54238;52.278;21.056;2022-09-27T12:09:48;19.50;;;15.40;;
67352;SDS011;54238;52.278;21.056;2022-09-27T12:12:25;16.40;;;13.70;;
67352;SDS011;54238;52.278;21.056;2022-09-27T12:15:05;16.20;;;14.40;;
67352;SDS011;54238;52.278;21.056;2022-09-27T12:17:44;21.70;;;15.90;;
67352;SDS011;54238;52.278;21.056;2022-09-27T12:20:23;17.80;;;14.00;;
67352;SDS011;54238;52.278;21.056;2022-09-27T12:25:38;17.60;;;14.10;;
67352;SDS011;54238;52.278;21.056;2022-09-27T12:31:20;14.40;;;12.70;;
67352;SDS011;54238;52.278;21.056;2022-09-27T12:34:15;15.40;;;13.60;;
67352;SDS011;54238;52.278;21.056;2022-09-27T12:39:49;14.50;;;12.80;;
67352;SDS011;54238;52.278;21.056;2022-09-27T12:42:23;19.00;;;12.70;;
67352;SDS011;54238;52.278;21.056;2022-09-27T12:45:12;17.30;;;13.10;;
67352;SDS011;54238;52.278;21.056;2022-09-27T12:48:07;15.80;;;13.50;;
67352;SDS011;54238;52.278;21.056;2022-09-27T12:50:53;15.40;;;12.70;;
67352;SDS011;54238;52.278;21.056;2022-09-27T12:53:31;14.30;;;12.80;;
67352;SDS011;54238;52.278;21.056;2022-09-27T12:56:42;15.80;;;12.90;;
67352;SDS011;54238;52.278;21.056;2022-09-27T13:05:41;13.00;;;10.80;;
67352;SDS011;54238;52.278;21.056;2022-09-27T13:09:06;12.80;;;10.40;;
67352;SDS011;54238;52.278;21.056;2022-09-27T13:14:34;14.60;;;10.30;;
67352;SDS011;54238;52.278;21.056;2022-09-27T13:17:30;11.70;;;9.30;;
67352;SDS011;54238;52.278;21.056;2022-09-27T13:31:12;10.90;;;8.80;;
67352;SDS011;54238;52.278;21.056;2022-09-27T13:33:43;10.40;;;9.20;;
67352;SDS011;54238;52.278;21.056;2022-09-27T13:44:23;9.90;;;8.70;;
67352;SDS011;54238;52.278;21.056;2022-09-27T13:46:56;11.20;;;9.50;;
67352;SDS011;54238;52.278;21.056;2022-09-27T13:49:35;10.00;;;8.90;;
67352;SDS011;54238;52.278;21.056;2022-09-27T13:52:27;10.40;;;9.20;;
67352;SDS011;54238;52.278;21.056;2022-09-27T14:00:52;10.70;;;9.00;;
67352;SDS011;54238;52.278;21.056;2022-09-27T14:03:31;10.80;;;8.90;;
67352;SDS011;54238;52.278;21.056;2022-09-27T14:06:05;13.50;;;8.50;;
67352;SDS011;54238;52.278;21.056;2022-09-27T14:08:48;11.50;;;8.40;;
67352;SDS011;54238;52.278;21.056;2022-09-27T14:11:39;12.10;;;9.30;;
67352;SDS011;54238;52.278;21.056;2022-09-27T14:14:17;9.70;;;7.70;;
67352;SDS011;54238;52.278;21.056;2022-09-27T14:16:52;9.80;;;7.40;;
67352;SDS011;54238;52.278;21.056;2022-09-27T14:19:26;7.70;;;7.00;;
67352;SDS011;54238;52.278;21.056;2022-09-27T14:21:58;9.40;;;8.20;;
67352;SDS011;54238;52.278;21.056;2022-09-27T14:27:23;8.40;;;7.60;;
67352;SDS011;54238;52.278;21.056;2022-09-27T14:29:59;9.90;;;8.10;;
67352;SDS011;54238;52.278;21.056;2022-09-27T14:32:49;9.00;;;7.80;;
67352;SDS011;54238;52.278;21.056;2022-09-27T14:35:25;11.10;;;7.60;;
67352;SDS011;54238;52.278;21.056;2022-09-27T14:38:16;8.60;;;7.30;;
67352;SDS011;54238;52.278;21.056;2022-09-27T14:40:56;7.90;;;7.00;;
67352;SDS011;54238;52.278;21.056;2022-09-27T14:43:29;8.30;;;6.90;;
67352;SDS011;54238;52.278;21.056;2022-09-27T14:46:02;9.40;;;8.10;;
67352;SDS011;54238;52.278;21.056;2022-09-27T14:48:38;12.30;;;7.00;;
67352;SDS011;54238;52.278;21.056;2022-09-27T14:53:44;14.40;;;8.10;;
67352;SDS011;54238;52.278;21.056;2022-09-27T14:56:17;9.70;;;7.00;;
67352;SDS011;54238;52.278;21.056;2022-09-27T14:58:53;9.20;;;7.30;;
67352;SDS011;54238;52.278;21.056;2022-09-27T15:01:31;9.70;;;7.70;;
67352;SDS011;54238;52.278;21.056;2022-09-27T15:04:05;10.90;;;8.10;;
67352;SDS011;54238;52.278;21.056;2022-09-27T15:06:38;9.90;;;7.40;;
67352;SDS011;54238;52.278;21.056;2022-09-27T15:09:06;14.90;;;8.30;;
67352;SDS011;54238;52.278;21.056;2022-09-27T15:11:40;9.20;;;7.40;;
67352;SDS011;54238;52.278;21.056;2022-09-27T15:14:15;9.90;;;8.10;;
67352;SDS011;54238;52.278;21.056;2022-09-27T15:16:51;9.00;;;7.40;;
67352;SDS011;54238;52.278;21.056;2022-09-27T15:19:28;9.20;;;7.50;;
67352;SDS011;54238;52.278;21.056;2022-09-27T15:22:20;9.00;;;7.00;;
67352;SDS011;54238;52.278;21.056;2022-09-27T15:24:49;10.70;;;6.80;;
67352;SDS011;54238;52.278;21.056;2022-09-27T15:27:22;7.90;;;7.10;;
67352;SDS011;54238;52.278;21.056;2022-09-27T15:29:58;12.10;;;7.60;;
67352;SDS011;54238;52.278;21.056;2022-09-27T15:32:30;9.40;;;6.90;;
67352;SDS011;54238;52.278;21.056;2022-09-27T15:35:06;9.60;;;7.30;;
67352;SDS011;54238;52.278;21.056;2022-09-27T15:37:41;7.50;;;6.60;;
67352;SDS011;54238;52.278;21.056;2022-09-27T15:42:58;14.60;;;8.30;;
67352;SDS011;54238;52.278;21.056;2022-09-27T15:45:35;9.80;;;8.80;;
67352;SDS011;54238;52.278;21.056;2022-09-27T15:48:12;10.80;;;7.60;;
67352;SDS011;54238;52.278;21.056;2022-09-27T15:50:46;11.20;;;8.40;;
67352;SDS011;54238;52.278;21.056;2022-09-27T15:56:04;15.00;;;7.80;;
67352;SDS011;54238;52.278;21.056;2022-09-27T15:58:34;12.40;;;8.30;;
67352;SDS011;54238;52.278;21.056;2022-09-27T16:01:03;10.30;;;8.20;;
67352;SDS011;54238;52.278;21.056;2022-09-27T16:03:31;10.30;;;7.70;;
67352;SDS011;54238;52.278;21.056;2022-09-27T16:06:01;9.50;;;7.50;;
67352;SDS011;54238;52.278;21.056;2022-09-27T16:08:29;11.70;;;7.00;;
67352;SDS011;54238;52.278;21.056;2022-09-27T16:10:59;10.80;;;7.80;;
67352;SDS011;54238;52.278;21.056;2022-09-27T16:13:28;8.80;;;7.80;;
67352;SDS011;54238;52.278;21.056;2022-09-27T16:16:00;9.30;;;7.50;;
67352;SDS011;54238;52.278;21.056;2022-09-27T16:18:28;8.40;;;7.50;;
67352;SDS011;54238;52.278;21.056;2022-09-27T16:20:59;9.50;;;7.20;;
67352;SDS011;54238;52.278;21.056;2022-09-27T16:23:30;10.30;;;7.60;;
67352;SDS011;54238;52.278;21.056;2022-09-27T16:25:59;10.20;;;8.20;;
67352;SDS011;54238;52.278;21.056;2022-09-27T16:28:28;10.90;;;8.70;;
67352;SDS011;54238;52.278;21.056;2022-09-27T16:31:03;9.50;;;8.60;;
67352;SDS011;54238;52.278;21.056;2022-09-27T16:33:33;9.20;;;7.80;;
67352;SDS011;54238;52.278;21.056;2022-09-27T16:36:06;11.50;;;8.50;;
67352;SDS011;54238;52.278;21.056;2022-09-27T16:38:41;9.80;;;8.80;;
67352;SDS011;54238;52.278;21.056;2022-09-27T16:41:11;11.20;;;8.90;;
67352;SDS011;54238;52.278;21.056;2022-09-27T16:43:38;10.40;;;8.90;;
67352;SDS011;54238;52.278;21.056;2022-09-27T16:46:11;10.80;;;9.30;;
67352;SDS011;54238;52.278;21.056;2022-09-27T16:48:41;9.90;;;8.80;;
67352;SDS011;54238;52.278;21.056;2022-09-27T16:54:07;15.80;;;9.80;;
67352;SDS011;54238;52.278;21.056;2022-09-27T16:56:37;12.60;;;9.40;;
67352;SDS011;54238;52.278;21.056;2022-09-27T16:59:04;11.10;;;9.80;;
67352;SDS011;54238;52.278;21.056;2022-09-27T17:01:33;11.60;;;8.80;;
67352;SDS011;54238;52.278;21.056;2022-09-27T17:04:00;12.30;;;9.60;;
67352;SDS011;54238;52.278;21.056;2022-09-27T17:06:30;11.00;;;9.20;;
67352;SDS011;54238;52.278;21.056;2022-09-27T17:09:02;10.20;;;9.20;;
67352;SDS011;54238;52.278;21.056;2022-09-27T17:11:32;9.90;;;8.90;;
67352;SDS011;54238;52.278;21.056;2022-09-27T17:14:04;10.60;;;9.10;;
67352;SDS011;54238;52.278;21.056;2022-09-27T17:16:33;10.10;;;8.80;;
67352;SDS011;54238;52.278;21.056;2022-09-27T17:19:00;15.00;;;10.00;;
67352;SDS011;54238;52.278;21.056;2022-09-27T17:21:29;12.40;;;9.90;;
67352;SDS011;54238;52.278;21.056;2022-09-27T17:24:04;11.70;;;9.60;;
67352;SDS011;54238;52.278;21.056;2022-09-27T17:26:31;12.20;;;9.80;;
67352;SDS011;54238;52.278;21.056;2022-09-27T17:29:04;11.70;;;9.30;;
67352;SDS011;54238;52.278;21.056;2022-09-27T17:31:31;16.50;;;9.60;;
67352;SDS011;54238;52.278;21.056;2022-09-27T17:34:02;13.60;;;10.30;;
67352;SDS011;54238;52.278;21.056;2022-09-27T17:36:31;16.10;;;9.90;;
67352;SDS011;54238;52.278;21.056;2022-09-27T17:39:01;11.80;;;10.20;;
67352;SDS011;54238;52.278;21.056;2022-09-27T17:41:30;14.40;;;10.00;;
67352;SDS011;54238;52.278;21.056;2022-09-27T17:44:03;13.10;;;10.70;;
67352;SDS011;54238;52.278;21.056;2022-09-27T17:46:35;20.00;;;11.70;;
67352;SDS011;54238;52.278;21.056;2022-09-27T17:54:26;12.40;;;10.20;;
67352;SDS011;54238;52.278;21.056;2022-09-27T17:56:54;16.80;;;10.10;;
67352;SDS011;54238;52.278;21.056;2022-09-27T17:59:25;15.00;;;11.50;;
67352;SDS011;54238;52.278;21.056;2022-09-27T18:01:55;14.50;;;11.60;;
67352;SDS011;54238;52.278;21.056;2022-09-27T18:04:27;16.30;;;12.00;;
67352;SDS011;54238;52.278;21.056;2022-09-27T18:06:56;16.60;;;12.30;;
67352;SDS011;54238;52.278;21.056;2022-09-27T18:09:26;19.80;;;12.80;;
67352;SDS011;54238;52.278;21.056;2022-09-27T18:11:53;16.10;;;12.20;;
67352;SDS011;54238;52.278;21.056;2022-09-27T18:14:23;17.40;;;12.40;;